Airfield :
LOGIN :

Register | Disclaimer

   EN    FR    IT 

 










Legend :    VFR   Marginal VFR   IFR   Intensive IFR   Very Intensive IFR
Visi :
Ceiling :
>= 8 km
>= 3000ft
5 to 8 km
1000 to 3000 ft
1500m to 5 km
500 to 1000 ft
800 to 1500m
200 to 500 ft
< 800m
< 200 ft
Symbols :   Thunderstorms  Fog  Heavy snow  Heavy precipitations  Wind > 20 kt
SIGMETs :     Misc.  Thunderstorms  Icing  Turbulence  Mountain Waves  Volcanic Ashes






- Airport Elevation : 96 ft
- IATA code : REG


LICR - Reggio Calabria

CURRENT METAR :
  • 231020Z AUTO 21011KT 9999 BKN220/// 22/18 Q1020

EXPIRED METARs :
  • 230950Z AUTO 21010KT 9999 BKN230/// 22/18 Q1020
  • 230920Z AUTO 21011KT 9999 SCT230/// 23/18 Q1020
  • 230850Z AUTO 20009KT 9999 BKN230/// 22/18 Q1020
  • 230820Z AUTO 21009KT 9999 FEW096/// 22/18 Q1020
  • 230750Z AUTO 21007KT 9999 SCT095/// 22/19 Q1020

TAF TAF LICR
Valid from the 23 at 06:00 until the 24 at 06:00 UTC


230500Z 2306/2406 20010KT 9999 SCT030
TEMPO 2310/2315 SHRA



MET'MAP, your aeronautical weather chart ! - Copyright ORBIFLY December 2007 - Disclaimer

ORBIFLY MET'MAP TEAM :

Programming & Development : Alexandra Zaïnal
Concept & original design : Baudouin d'Aumeries
Assistance for programming : Marc-Olivier Méhu
Technical & hardware support : Manuel Goepfert

Contact : metmap@orbifly.com




SOURCES & CREDITS :

   NOAA